createdAt,value
2022-12-11T00:01:25.978Z,-11.65
2022-12-11T00:04:29.564Z,-11.53
2022-12-11T00:07:32.909Z,-11.65
2022-12-11T00:10:37.911Z,-11.75
2022-12-11T00:13:42.506Z,-11.78
2022-12-11T00:16:49.139Z,-11.59
2022-12-11T00:19:53.174Z,-11.81
2022-12-11T00:22:57.915Z,-11.85
2022-12-11T00:26:02.147Z,-11.99
2022-12-11T00:29:06.031Z,-12.06
2022-12-11T00:32:09.680Z,-12.12
2022-12-11T00:35:13.794Z,-12.15
2022-12-11T00:38:19.913Z,-12.08
2022-12-11T00:41:23.716Z,-12.09
2022-12-11T00:44:27.916Z,-12.15
2022-12-11T00:47:31.266Z,-12.12
2022-12-11T00:50:35.833Z,-12.05
2022-12-11T00:53:40.259Z,-12.03
2022-12-11T00:56:44.031Z,-11.96
2022-12-11T00:59:48.164Z,-11.93
2022-12-11T01:02:52.624Z,-11.86
2022-12-11T01:05:56.421Z,-11.79
2022-12-11T01:09:18.740Z,-11.69
2022-12-11T01:12:22.340Z,-11.61
2022-12-11T01:15:30.656Z,-11.56
2022-12-11T01:18:35.619Z,-11.54
2022-12-11T01:21:39.172Z,-11.50
2022-12-11T01:24:51.957Z,-11.53
2022-12-11T01:27:56.434Z,-11.13
2022-12-11T01:31:00.218Z,-10.87
2022-12-11T01:34:03.292Z,-10.74
2022-12-11T01:37:06.267Z,-10.61
2022-12-11T01:40:12.305Z,-10.57
2022-12-11T01:43:15.347Z,-10.20
2022-12-11T01:46:19.307Z,-9.87
2022-12-11T01:49:27.408Z,-9.76
2022-12-11T01:52:30.799Z,-9.68
2022-12-11T01:55:35.387Z,-9.49
2022-12-11T01:58:47.862Z,-9.38
2022-12-11T02:02:05.716Z,-9.08
2022-12-11T02:05:10.385Z,-9.10
2022-12-11T02:08:14.039Z,-9.39
2022-12-11T02:11:22.777Z,-9.63
2022-12-11T02:14:42.574Z,-9.64
2022-12-11T02:17:51.821Z,-9.73
2022-12-11T02:21:08.563Z,-10.17
2022-12-11T02:24:42.843Z,-10.05
2022-12-11T02:27:54.028Z,-10.23
2022-12-11T02:31:15.140Z,-10.39
2022-12-11T02:34:29.903Z,-10.36
2022-12-11T02:37:37.289Z,-10.39
2022-12-11T02:40:43.151Z,-10.56
2022-12-11T02:43:48.730Z,-10.34
2022-12-11T02:46:53.762Z,-10.36
2022-12-11T02:50:01.198Z,-10.18
2022-12-11T02:53:07.618Z,-10.53
2022-12-11T02:56:22.979Z,-10.37
2022-12-11T02:59:47.162Z,-10.28
2022-12-11T03:02:50.927Z,-10.02
2022-12-11T03:05:54.913Z,-9.80
2022-12-11T03:08:58.981Z,-9.72
2022-12-11T03:12:03.314Z,-9.51
2022-12-11T03:15:11.912Z,-9.29
2022-12-11T03:18:39.632Z,-9.20
2022-12-11T03:22:12.402Z,-9.19
2022-12-11T03:25:26.979Z,-9.09
2022-12-11T03:28:44.538Z,-8.93
2022-12-11T03:32:02.208Z,-8.77
2022-12-11T03:35:14.768Z,-8.56
2022-12-11T03:38:25.557Z,-8.45
2022-12-11T03:41:32.126Z,-8.39
2022-12-11T03:44:36.754Z,-8.25
2022-12-11T03:47:42.655Z,-8.09
2022-12-11T03:50:48.600Z,-8.06
2022-12-11T03:53:53.300Z,-8.06
2022-12-11T03:56:59.898Z,-7.89
2022-12-11T04:00:07.314Z,-7.85
2022-12-11T04:03:14.930Z,-7.86
2022-12-11T04:06:19.179Z,-7.77
2022-12-11T04:09:22.926Z,-7.66
2022-12-11T04:12:27.075Z,-7.61
2022-12-11T04:15:30.397Z,-7.70
2022-12-11T04:18:52.239Z,-7.74
2022-12-11T04:22:13.725Z,-7.46
2022-12-11T04:25:17.095Z,-7.35
2022-12-11T04:28:20.866Z,-7.38
2022-12-11T04:31:24.884Z,-7.35
2022-12-11T04:34:29.080Z,-7.32
2022-12-11T04:37:32.366Z,-7.24
2022-12-11T04:40:36.210Z,-7.24
2022-12-11T04:43:40.372Z,-7.24
2022-12-11T04:46:43.786Z,-7.17
2022-12-11T04:49:47.430Z,-7.19
2022-12-11T04:52:51.408Z,-7.16
2022-12-11T04:55:55.045Z,-7.19
2022-12-11T04:58:58.708Z,-7.04
2022-12-11T05:02:02.189Z,-6.98
2022-12-11T05:05:07.384Z,-7.17
2022-12-11T05:08:11.532Z,-7.29
2022-12-11T05:11:16.389Z,-7.19
2022-12-11T05:14:20.450Z,-7.38
2022-12-11T05:17:24.243Z,-7.34
2022-12-11T05:20:29.916Z,-7.32
2022-12-11T05:23:34.306Z,-7.23
2022-12-11T05:26:38.431Z,-7.16
2022-12-11T05:29:42.075Z,-7.12
2022-12-11T05:32:46.278Z,-6.99
2022-12-11T05:35:50.649Z,-7.08
2022-12-11T05:38:55.125Z,-7.08
2022-12-11T05:41:58.924Z,-7.06
2022-12-11T05:45:02.717Z,-7.14
2022-12-11T05:48:06.524Z,-7.04
2022-12-11T05:51:11.541Z,-7.09
2022-12-11T05:54:15.893Z,-7.06
2022-12-11T05:57:19.917Z,-7.03
2022-12-11T06:00:23.768Z,-7.08
2022-12-11T06:03:28.031Z,-7.02
2022-12-11T06:06:32.285Z,-7.02
2022-12-11T06:09:36.400Z,-7.04
2022-12-11T06:12:39.979Z,-7.05
2022-12-11T06:15:44.097Z,-7.13
2022-12-11T06:18:48.693Z,-7.05
2022-12-11T06:21:52.762Z,-7.13
2022-12-11T06:24:56.585Z,-7.21
2022-12-11T06:28:00.604Z,-7.23
2022-12-11T06:31:05.119Z,-7.25
2022-12-11T06:34:10.401Z,-7.25
2022-12-11T06:37:14.588Z,-7.33
2022-12-11T06:40:18.717Z,-7.33
2022-12-11T06:43:22.401Z,-7.50
2022-12-11T06:46:26.495Z,-7.52
2022-12-11T06:49:31.068Z,-7.50
2022-12-11T06:52:34.835Z,-7.49
2022-12-11T06:55:38.713Z,-7.53
2022-12-11T06:58:44.830Z,-7.60
2022-12-11T07:01:48.755Z,-7.66
2022-12-11T07:04:55.186Z,-7.64
2022-12-11T07:07:59.336Z,-7.74
2022-12-11T07:11:05.612Z,-7.62
2022-12-11T07:14:09.795Z,-7.65
2022-12-11T07:17:13.807Z,-7.78
2022-12-11T07:20:17.836Z,-7.93
2022-12-11T07:23:22.518Z,-8.03
2022-12-11T07:26:26.443Z,-8.12
2022-12-11T07:29:30.748Z,-8.19
2022-12-11T07:32:34.644Z,-8.22
2022-12-11T07:35:38.803Z,-8.21
2022-12-11T07:38:42.882Z,-8.18
2022-12-11T07:41:48.049Z,-8.20
2022-12-11T07:44:53.628Z,-8.26
2022-12-11T07:47:57.615Z,-8.32
2022-12-11T07:51:15.822Z,-8.38
2022-12-11T07:54:21.894Z,-8.40
2022-12-11T07:57:25.741Z,-8.41
2022-12-11T08:00:29.772Z,-8.47
2022-12-11T08:03:33.031Z,-8.47
2022-12-11T08:06:40.067Z,-8.46
2022-12-11T08:09:43.705Z,-8.52
2022-12-11T08:12:47.723Z,-8.62
2022-12-11T08:15:54.595Z,-8.67
2022-12-11T08:18:59.379Z,-8.68
2022-12-11T08:22:02.756Z,-8.72
2022-12-11T08:25:07.381Z,-8.76
2022-12-11T08:28:11.062Z,-8.82
2022-12-11T08:31:16.588Z,-8.80
2022-12-11T08:34:20.376Z,-8.92
2022-12-11T08:37:24.752Z,-8.94
2022-12-11T08:40:28.439Z,-8.92
2022-12-11T08:43:35.073Z,-8.91
2022-12-11T08:46:39.015Z,-8.89
2022-12-11T08:49:42.832Z,-8.87
2022-12-11T08:52:46.593Z,-8.82
2022-12-11T08:55:50.989Z,-8.85
2022-12-11T08:58:55.414Z,-8.90
2022-12-11T09:01:59.553Z,-8.97
2022-12-11T09:05:02.651Z,-8.91
2022-12-11T09:08:06.826Z,-8.84
2022-12-11T09:11:14.572Z,-8.84
2022-12-11T09:14:17.915Z,-8.86
2022-12-11T09:17:21.664Z,-8.80
2022-12-11T09:20:25.337Z,-8.86
2022-12-11T09:23:28.900Z,-8.88
2022-12-11T09:26:33.089Z,-8.90
2022-12-11T09:29:36.787Z,-8.96
2022-12-11T09:32:40.565Z,-8.88
2022-12-11T09:35:43.887Z,-8.84
2022-12-11T09:38:47.950Z,-8.89
2022-12-11T09:42:09.332Z,-8.78
2022-12-11T09:45:16.491Z,-8.72
2022-12-11T09:48:24.872Z,-8.74
2022-12-11T09:51:33.612Z,-8.73
2022-12-11T09:54:37.329Z,-8.76
2022-12-11T09:58:14.064Z,-8.76
2022-12-11T10:01:41.919Z,-8.73
2022-12-11T10:05:10.369Z,-8.68
2022-12-11T10:08:26.186Z,-8.68
2022-12-11T10:12:05.662Z,-8.73
2022-12-11T10:15:26.801Z,-8.74
2022-12-11T10:18:32.372Z,-8.81
2022-12-11T10:21:41.207Z,-8.81
2022-12-11T10:25:11.084Z,-8.90
2022-12-11T10:28:19.655Z,-8.91
2022-12-11T10:31:44.423Z,-8.77
2022-12-11T10:34:50.135Z,-8.70
2022-12-11T10:37:58.964Z,-8.67
2022-12-11T10:41:06.186Z,-8.71
2022-12-11T10:44:27.209Z,-8.69
2022-12-11T10:47:30.644Z,-8.71
2022-12-11T10:50:34.753Z,-8.81
2022-12-11T10:53:38.120Z,-8.97
2022-12-11T10:56:41.613Z,-9.04
2022-12-11T10:59:48.582Z,-9.06
2022-12-11T11:02:52.680Z,-9.03
2022-12-11T11:06:17.715Z,-9.07
2022-12-11T11:09:39.058Z,-9.03
2022-12-11T11:12:45.600Z,-9.11
2022-12-11T11:15:50.020Z,-9.16
2022-12-11T11:18:56.433Z,-9.23
2022-12-11T11:22:02.755Z,-9.21
2022-12-11T11:25:06.642Z,-9.28
2022-12-11T11:28:26.941Z,-9.21
2022-12-11T11:31:35.755Z,-9.26
2022-12-11T11:34:39.969Z,-9.37
2022-12-11T11:37:50.266Z,-9.36
2022-12-11T11:41:38.692Z,-9.23
2022-12-11T11:44:57.760Z,-9.19
2022-12-11T11:48:18.333Z,-9.28
2022-12-11T11:52:05.208Z,-9.34
2022-12-11T11:55:29.375Z,-9.36
2022-12-11T11:58:47.401Z,-9.41
2022-12-11T12:01:54.966Z,-9.50
2022-12-11T12:04:58.088Z,-9.56
2022-12-11T12:08:16.509Z,-9.54
2022-12-11T12:11:42.372Z,-9.50
2022-12-11T12:15:14.585Z,-9.50
2022-12-11T12:18:40.004Z,-9.58
2022-12-11T12:21:48.590Z,-9.58
2022-12-11T12:25:24.835Z,-9.62
2022-12-11T12:28:31.270Z,-9.67
2022-12-11T12:32:02.620Z,-9.69
2022-12-11T12:35:31.958Z,-9.72
2022-12-11T12:38:52.214Z,-9.71
2022-12-11T12:42:22.060Z,-9.64
2022-12-11T12:45:41.067Z,-9.71
2022-12-11T12:48:46.770Z,-9.71
2022-12-11T12:51:51.823Z,-9.74
2022-12-11T12:55:17.132Z,-9.75
2022-12-11T12:58:43.700Z,-9.76
2022-12-11T13:01:53.306Z,-9.80
2022-12-11T13:05:04.038Z,-9.86
2022-12-11T13:08:07.274Z,-9.88
2022-12-11T13:11:13.413Z,-9.90
2022-12-11T13:14:17.335Z,-9.90
2022-12-11T13:17:23.351Z,-9.91
2022-12-11T13:20:31.517Z,-9.90
2022-12-11T13:23:35.807Z,-9.93
2022-12-11T13:26:40.722Z,-9.97
2022-12-11T13:29:44.507Z,-9.90
2022-12-11T13:33:24.028Z,-9.87
2022-12-11T13:36:31.968Z,-9.85
2022-12-11T13:39:40.939Z,-9.81
2022-12-11T13:43:00.073Z,-9.84
2022-12-11T13:46:11.467Z,-9.83
2022-12-11T13:49:24.722Z,-9.75
2022-12-11T13:52:29.438Z,-9.71
2022-12-11T13:55:35.155Z,-9.73
2022-12-11T13:58:41.544Z,-9.75
2022-12-11T14:01:44.574Z,-9.71
2022-12-11T14:04:50.404Z,-9.62
2022-12-11T14:07:59.409Z,-9.64
2022-12-11T14:11:03.215Z,-9.67
2022-12-11T14:14:17.042Z,-9.64
2022-12-11T14:17:31.027Z,-9.62
2022-12-11T14:20:35.897Z,-9.57
2022-12-11T14:23:39.659Z,-9.59
2022-12-11T14:26:51.887Z,-9.51
2022-12-11T14:29:55.928Z,-9.53
2022-12-11T14:33:03.134Z,-9.51
2022-12-11T14:36:07.296Z,-9.48
2022-12-11T14:39:34.845Z,-9.51
2022-12-11T14:42:43.853Z,-9.52
2022-12-11T14:45:50.642Z,-9.58
2022-12-11T14:49:01.622Z,-9.51
2022-12-11T14:52:06.185Z,-9.44
2022-12-11T14:55:13.596Z,-9.38
2022-12-11T14:58:24.122Z,-9.35
2022-12-11T15:01:33.078Z,-9.30
2022-12-11T15:04:37.363Z,-9.33
2022-12-11T15:07:44.223Z,-9.25
2022-12-11T15:11:10.238Z,-9.16
2022-12-11T15:14:16.374Z,-9.11
2022-12-11T15:17:20.272Z,-9.13
2022-12-11T15:20:32.866Z,-9.10
2022-12-11T15:23:57.166Z,-9.12
2022-12-11T15:27:01.797Z,-9.20
2022-12-11T15:30:29.549Z,-9.22
2022-12-11T15:33:34.577Z,-9.28
2022-12-11T15:36:38.991Z,-9.53
2022-12-11T15:39:42.834Z,-9.77
2022-12-11T15:42:48.305Z,-9.74
2022-12-11T15:45:51.358Z,-9.80
2022-12-11T15:48:54.957Z,-9.96
2022-12-11T15:51:58.790Z,-9.93
2022-12-11T15:55:02.955Z,-9.98
2022-12-11T15:58:09.807Z,-10.05
2022-12-11T16:01:14.131Z,-10.10
2022-12-11T16:04:17.779Z,-9.97
2022-12-11T16:07:26.792Z,-9.99
2022-12-11T16:10:30.649Z,-10.07
2022-12-11T16:13:34.356Z,-9.91
2022-12-11T16:16:37.981Z,-9.85
2022-12-11T16:19:42.816Z,-9.83
2022-12-11T16:22:46.570Z,-9.78
2022-12-11T16:25:50.913Z,-9.93
2022-12-11T16:28:54.685Z,-9.93
2022-12-11T16:31:57.694Z,-9.98
2022-12-11T16:35:01.649Z,-9.94
2022-12-11T16:38:05.961Z,-9.92
2022-12-11T16:41:09.749Z,-10.06
2022-12-11T16:44:13.958Z,-10.11
2022-12-11T16:47:17.675Z,-10.03
2022-12-11T16:50:21.913Z,-10.05
2022-12-11T16:53:26.271Z,-10.10
2022-12-11T16:56:30.067Z,-10.20
2022-12-11T16:59:37.238Z,-10.17
2022-12-11T17:02:41.831Z,-10.16
2022-12-11T17:05:45.546Z,-10.12
2022-12-11T17:08:49.145Z,-10.13
2022-12-11T17:11:53.845Z,-10.24
2022-12-11T17:14:58.014Z,-10.15
2022-12-11T17:18:01.310Z,-10.13
2022-12-11T17:21:15.062Z,-10.25
2022-12-11T17:24:18.526Z,-10.44
2022-12-11T17:27:22.257Z,-10.32
2022-12-11T17:30:25.898Z,-10.49
2022-12-11T17:33:30.095Z,-10.40
2022-12-11T17:36:34.687Z,-10.61
2022-12-11T17:39:39.668Z,-10.67
2022-12-11T17:42:45.351Z,-10.63
2022-12-11T17:45:53.009Z,-10.75
2022-12-11T17:48:57.209Z,-10.82
2022-12-11T17:52:01.343Z,-10.83
2022-12-11T17:55:06.533Z,-10.81
2022-12-11T17:58:16.280Z,-10.78
2022-12-11T18:01:20.458Z,-10.83
2022-12-11T18:04:23.679Z,-10.84
2022-12-11T18:07:27.428Z,-10.98
2022-12-11T18:10:31.086Z,-11.24
2022-12-11T18:13:34.215Z,-11.31
2022-12-11T18:16:39.275Z,-11.20
2022-12-11T18:19:46.081Z,-11.38
2022-12-11T18:22:50.075Z,-11.43
2022-12-11T18:25:53.815Z,-11.43
2022-12-11T18:28:57.599Z,-11.42
2022-12-11T18:32:01.229Z,-11.48
2022-12-11T18:35:05.757Z,-11.58
2022-12-11T18:38:11.080Z,-11.73
2022-12-11T18:41:15.562Z,-11.68
2022-12-11T18:44:23.135Z,-11.75
2022-12-11T18:47:27.539Z,-11.72
2022-12-11T18:50:31.221Z,-11.70
2022-12-11T18:53:35.853Z,-11.71
2022-12-11T18:56:39.339Z,-11.73
2022-12-11T18:59:43.376Z,-11.71
2022-12-11T19:02:47.148Z,-11.91
2022-12-11T19:05:50.853Z,-12.03
2022-12-11T19:08:54.520Z,-12.14
2022-12-11T19:11:58.495Z,-12.03
2022-12-11T19:15:02.278Z,-11.97
2022-12-11T19:18:06.400Z,-11.98
2022-12-11T19:21:12.442Z,-11.98
2022-12-11T19:24:20.582Z,-12.16
2022-12-11T19:27:24.659Z,-12.22
2022-12-11T19:30:28.767Z,-12.25
2022-12-11T19:33:32.359Z,-12.23
2022-12-11T19:36:38.112Z,-12.43
2022-12-11T19:39:41.732Z,-12.44
2022-12-11T19:42:45.860Z,-12.46
2022-12-11T19:45:49.838Z,-12.46
2022-12-11T19:48:55.055Z,-12.53
2022-12-11T19:51:58.679Z,-12.49
2022-12-11T19:55:04.654Z,-12.65
2022-12-11T19:58:08.320Z,-12.72
2022-12-11T20:01:25.504Z,-12.67
2022-12-11T20:04:29.384Z,-12.63
2022-12-11T20:07:33.174Z,-12.73
2022-12-11T20:10:37.503Z,-12.71
2022-12-11T20:13:41.920Z,-12.74
2022-12-11T20:17:10.098Z,-12.73
2022-12-11T20:20:10.686Z,-13.04
2022-12-11T20:23:14.037Z,-13.12
2022-12-11T20:26:24.280Z,-13.12
2022-12-11T20:29:28.263Z,-13.18
2022-12-11T20:32:31.901Z,-13.14
2022-12-11T20:35:34.970Z,-13.05
2022-12-11T20:38:39.136Z,-12.98
2022-12-11T20:41:42.825Z,-13.26
2022-12-11T20:44:49.245Z,-13.39
2022-12-11T20:47:53.347Z,-13.40
2022-12-11T20:51:03.756Z,-13.56
2022-12-11T20:54:06.979Z,-13.48
2022-12-11T20:57:11.520Z,-13.54
2022-12-11T21:00:15.713Z,-13.58
2022-12-11T21:03:20.023Z,-13.59
2022-12-11T21:06:26.538Z,-13.70
2022-12-11T21:09:30.403Z,-13.68
2022-12-11T21:12:34.393Z,-13.66
2022-12-11T21:15:40.310Z,-13.74
2022-12-11T21:18:44.851Z,-13.86
2022-12-11T21:21:49.598Z,-14.02
2022-12-11T21:24:53.014Z,-13.93
2022-12-11T21:27:57.172Z,-13.84
2022-12-11T21:31:04.088Z,-13.99
2022-12-11T21:34:08.407Z,-14.04
2022-12-11T21:37:12.067Z,-14.16
2022-12-11T21:40:15.579Z,-14.09
2022-12-11T21:43:19.423Z,-14.21
2022-12-11T21:46:26.303Z,-14.39
2022-12-11T21:49:29.634Z,-14.36
2022-12-11T21:52:33.697Z,-14.40
2022-12-11T21:55:41.813Z,-14.47
2022-12-11T21:58:46.465Z,-14.48
2022-12-11T22:01:50.280Z,-14.46
2022-12-11T22:04:55.134Z,-14.47
2022-12-11T22:07:58.380Z,-14.56
2022-12-11T22:11:02.457Z,-14.43
2022-12-11T22:14:07.472Z,-14.56
2022-12-11T22:17:11.063Z,-14.62
2022-12-11T22:20:15.099Z,-14.53
2022-12-11T22:23:18.994Z,-14.55
2022-12-11T22:26:26.808Z,-14.63
2022-12-11T22:29:30.289Z,-14.63
2022-12-11T22:32:33.591Z,-14.61
2022-12-11T22:35:37.929Z,-14.77
2022-12-11T22:38:41.662Z,-14.90
2022-12-11T22:41:45.666Z,-14.90
2022-12-11T22:44:49.319Z,-14.81
2022-12-11T22:47:53.438Z,-14.70
2022-12-11T22:50:56.986Z,-14.74
2022-12-11T22:54:02.129Z,-14.85
2022-12-11T22:57:05.767Z,-14.78
2022-12-11T23:00:12.026Z,-14.78
2022-12-11T23:03:15.811Z,-14.67
2022-12-11T23:06:22.860Z,-14.63
2022-12-11T23:09:26.719Z,-14.82
2022-12-11T23:12:30.468Z,-14.83
2022-12-11T23:15:34.559Z,-14.72
2022-12-11T23:18:38.506Z,-14.69
2022-12-11T23:21:42.985Z,-14.71
2022-12-11T23:24:48.153Z,-14.60
2022-12-11T23:27:51.621Z,-14.69
2022-12-11T23:30:55.968Z,-14.66
2022-12-11T23:33:59.890Z,-14.76
2022-12-11T23:37:04.131Z,-14.73
2022-12-11T23:40:09.621Z,-14.82
2022-12-11T23:43:13.642Z,-14.84
2022-12-11T23:46:20.982Z,-14.89
2022-12-11T23:49:25.126Z,-14.79
2022-12-11T23:52:28.730Z,-15.03
2022-12-11T23:55:32.937Z,-14.96
2022-12-11T23:58:38.033Z,-14.76
